Pagrindinis puslapis
METAR-TAF:

METAR-TAF

Oro uostai :

Patna, Indija

platuma: 25-36N, ilguma: 085-06E, Aukštis: 51 m

Dabartinis oras

Ataskaita buvo paskelbta 11 minutes, ne 21:30 UTC
Vėjas 4 kt iš Šiaurės Vakarų
Temperatūra 9°C
Drėgmė 100%
Slėgis 1016 hPa
Matomumas: 0500 m
rūkas

METAR: VEPT 262130Z 32004KT 0500 R25/1000 FG VV/// 09/09 Q1016 NOSIG

Laikas: 03:11 (21:41 UTC)

Prognozė

Ataskaita buvo paskelbta 1 valandą ir 41 minutes, ne 20:00 UTC
Prognozė galioja nuo 26 metu 21 UTC su 27 metu 06 UTC
Vėjas 5 kt iš Vakarų/Šiaurės Vakarų
Matomumas: 0600 m
rūkas
Tapsmas
nuo 27 metu 03 UTC su 27 metu 05 UTC
Matomumas: 1200 m
rūkana

TAF: VEPT 262000Z 2621/2706 30005KT 0600 FG VV/// BECMG 2703/2705 1200 BR

Orai ataskaitas ir orų prognozės (METAR, TAF).

turimą stotys yra geltonos ir raudonos taškus žemėlapyje.

Perkelti pele per norėdami pamatyti stoties vardą.

Tada spustelėkite, norėdami matyti oro stebėjimo ir prognozės.

Norėdami pakeisti žemėlapį: spustelėkite ant žalios mygtukų su juodo kryžiaus žemyn,; žalią mygtuką su brūkšneliu, jei norite nutolinti; arba žalių rodyklių gretimoms žemėlapius.


METAR-TAF: